Ce_breeze — ELSQ7 — position and weather

sailwx.info

Track history (hours):
 
Tides and Currents Weather Stations Pressure Air Temp Water Temp Dewpoint Dewpoint Depression Visibility Wind Speed Wind Dir Waves Ship Positions

Ce_breeze

Last reported at 2017-May-20 15:00 UTC. Time now 2017-May-23 06:52 UTC.
Position N 37°48' E 024°31'.

Length 240 m; draft 8 m.

Type: Tanker. MMSI: 636010400.

Date/timePositionNaut miles runAvg speedWind from/ knotsBaromVisibWave heightAir tempDewpointWater temp
2017-May-20 15:00N 37°48' E 024°31'612.2
2017-May-20 14:30N 37°45' E 024°24'1412.9
2017-May-20 13:26N 37°36' E 024°11'512.5
2017-May-20 13:00N 37°34' E 024°04'612.4
2017-May-20 12:30N 37°35' E 023°57'612.0
2017-May-20 12:00N 37°37' E 023°50'612.1
2017-May-20 11:30N 37°39' E 023°43'612.0
2017-May-20 11:00N 37°45' E 023°39'510.8
2017-May-20 10:30N 37°49' E 023°36'4 8.9
2017-May-20 10:00N 37°52' E 023°31'1 2.1
2017-May-20 09:28N 37°52' E 023°30'0 0.1
2017-May-20 08:58N 37°52' E 023°30'0 0.0
2017-May-20 08:28N 37°52' E 023°30'0 0.0
2017-May-20 07:58N 37°52' E 023°30'0 0.0
2017-May-20 07:28N 37°52' E 023°30'0 0.0
2017-May-20 06:55N 37°52' E 023°30'0 0.0
2017-May-20 06:28N 37°52' E 023°30'0 0.0
2017-May-20 05:58N 37°52' E 023°30'0 0.0
2017-May-20 05:28N 37°52' E 023°30'0 0.0
2017-May-20 04:58N 37°52' E 023°30'0 0.0
2017-May-20 04:28N 37°52' E 023°30'0 0.0
2017-May-20 03:58N 37°52' E 023°30'0 0.0
2017-May-20 03:28N 37°52' E 023°30'0 0.0
2017-May-20 02:58N 37°52' E 023°30'0 0.0
2017-May-20 02:28N 37°52' E 023°30'0 0.0
2017-May-20 01:58N 37°52' E 023°30'0 0.0
2017-May-20 01:28N 37°52' E 023°30'0 0.0
2017-May-20 00:58N 37°52' E 023°30'0 0.0
2017-May-20 00:28N 37°52' E 023°30'0 0.0
2017-May-19 23:58N 37°52' E 023°30'0 0.1
2017-May-19 23:28N 37°52' E 023°30'0 0.0
2017-May-19 22:58N 37°52' E 023°30'0 0.0
2017-May-19 22:28N 37°52' E 023°30'0 0.0
2017-May-19 21:58N 37°52' E 023°30'0 0.1
2017-May-19 21:28N 37°52' E 023°30'0 0.0
2017-May-19 20:58N 37°52' E 023°30'0 0.0
2017-May-19 20:28N 37°52' E 023°30'0 0.0
2017-May-19 19:58N 37°52' E 023°30'0 0.0
2017-May-19 19:28N 37°52' E 023°30'0 0.0
2017-May-19 18:58N 37°52' E 023°30'0 0.0
2017-May-19 18:28N 37°52' E 023°30'0 0.1
2017-May-19 17:58N 37°52' E 023°30'0 0.1
2017-May-19 17:28N 37°52' E 023°30'0 0.0
2017-May-19 16:58N 37°52' E 023°30'0 0.0
2017-May-19 16:28N 37°52' E 023°30'0 0.5
2017-May-19 16:00N 37°52' E 023°30'1 3.0
2017-May-19 15:30N 37°51' E 023°28'3 5.4
2017-May-19 15:00N 37°52' E 023°25'7 6.8
2017-May-19 14:00N 37°58' E 023°23'0 0.0
2017-May-19 13:30N 37°58' E 023°23'0 0.0
2017-May-19 13:00N 37°58' E 023°23'0 0.0
2017-May-19 12:30N 37°58' E 023°23'0 0.0
2017-May-19 11:59N 37°58' E 023°23'0 0.0
2017-May-19 11:29N 37°58' E 023°23'0 0.0
2017-May-19 10:59N 37°58' E 023°23'0 0.0
2017-May-19 10:29N 37°58' E 023°23'0 0.0
2017-May-19 09:59N 37°58' E 023°23'0 0.0
2017-May-19 09:29N 37°58' E 023°23'0 0.0
2017-May-19 08:59N 37°58' E 023°23'0 0.0
2017-May-19 08:29N 37°58' E 023°23'0 0.0
2017-May-19 07:59N 37°58' E 023°23'0 0.0
2017-May-19 07:29N 37°58' E 023°23'0 0.0
2017-May-19 06:59N 37°58' E 023°23'0 0.0
2017-May-19 06:26N 37°58' E 023°23'0 0.0
2017-May-19 05:59N 37°58' E 023°23'0 0.0
2017-May-19 05:29N 37°58' E 023°23'0 0.0
2017-May-19 04:59N 37°58' E 023°23'0 0.0
2017-May-19 04:29N 37°58' E 023°23'0 0.0
2017-May-19 03:59N 37°58' E 023°23'0 0.0
2017-May-19 03:29N 37°58' E 023°23'0 0.0
2017-May-19 02:59N 37°58' E 023°23'0 0.0
2017-May-19 02:29N 37°58' E 023°23'0 0.0
2017-May-19 01:59N 37°58' E 023°23'0 0.0
2017-May-19 01:29N 37°58' E 023°23'0 0.0
2017-May-19 00:59N 37°58' E 023°23'0 0.0
2017-May-19 00:26N 37°58' E 023°23'0 0.0
2017-May-18 23:59N 37°58' E 023°23'0 0.0
2017-May-18 23:29N 37°58' E 023°23'0 0.0
2017-May-18 22:59N 37°58' E 023°23'0 0.0
2017-May-18 22:26N 37°58' E 023°23'0 0.0
2017-May-18 21:59N 37°58' E 023°23'0 0.0
2017-May-18 21:29N 37°58' E 023°23'0 0.0
2017-May-18 20:59N 37°58' E 023°23'0 0.0
2017-May-18 20:29N 37°58' E 023°23'0 0.0
2017-May-18 19:59N 37°58' E 023°23'0 0.0
2017-May-18 19:29N 37°58' E 023°23'0 0.0
2017-May-18 18:59N 37°58' E 023°23'0 0.0
2017-May-18 18:29N 37°58' E 023°23'0 0.0
2017-May-18 17:59N 37°58' E 023°23'0 0.0
2017-May-18 17:29N 37°58' E 023°23'0 0.0
2017-May-18 16:53N 37°58' E 023°23'0 0.0
2017-May-18 16:29N 37°58' E 023°23'0 0.0
2017-May-18 15:59N 37°58' E 023°23'0 0.0
2017-May-18 15:29N 37°58' E 023°23'0 0.0
2017-May-18 14:59N 37°58' E 023°23'0 0.0
2017-May-18 14:29N 37°58' E 023°23'0 0.0
2017-May-18 13:29N 37°58' E 023°23'0 0.0
2017-May-18 12:59N 37°58' E 023°23'0 0.0
2017-May-18 12:29N 37°58' E 023°23'0 0.0
2017-May-18 11:59N 37°58' E 023°23'0 0.0
2017-May-18 11:29N 37°58' E 023°23'0 0.0
2017-May-18 10:59N 37°58' E 023°23'0 0.0
2017-May-18 10:29N 37°58' E 023°23'0 0.0
2017-May-18 10:00N 37°58' E 023°23'1 1.4
2017-May-18 09:30N 37°58' E 023°23'1 1.5
2017-May-18 08:59N 37°57' E 023°22'0 0.1
2017-May-18 08:29N 37°57' E 023°22'0 0.0
2017-May-18 07:59N 37°57' E 023°22'0 0.0
2017-May-18 07:29N 37°57' E 023°22'0 0.0
2017-May-18 06:59N 37°57' E 023°22'0 0.1
2017-May-18 06:29N 37°57' E 023°22'0 0.0
2017-May-18 05:59N 37°57' E 023°22'0 0.0
2017-May-18 05:29N 37°57' E 023°22'0 0.0
2017-May-18 04:59N 37°57' E 023°22'0 0.1
2017-May-18 04:29N 37°57' E 023°22'0 0.1
2017-May-18 03:59N 37°57' E 023°22'0 0.0
2017-May-18 03:29N 37°57' E 023°22'0 0.0
2017-May-18 02:59N 37°57' E 023°22'0 0.0
2017-May-18 02:29N 37°57' E 023°22'0 0.0
2017-May-18 01:59N 37°57' E 023°22'0 0.0
2017-May-18 01:29N 37°57' E 023°22'0 0.1
2017-May-18 00:59N 37°57' E 023°22'0 0.1
2017-May-18 00:29N 37°57' E 023°22'0 0.0
2017-May-17 23:59N 37°57' E 023°22'0 0.0
2017-May-17 23:29N 37°57' E 023°22'0 0.0
2017-May-17 22:59N 37°57' E 023°22'0 0.1
2017-May-17 22:29N 37°57' E 023°22'0 0.0
2017-May-17 21:59N 37°57' E 023°22'0 0.0
2017-May-17 21:29N 37°57' E 023°22'0 0.0
2017-May-17 20:59N 37°57' E 023°22'0 0.0
2017-May-17 20:29N 37°57' E 023°22'0 0.0
2017-May-17 19:59N 37°57' E 023°22'0 0.0
2017-May-17 19:29N 37°57' E 023°22'0 0.1
2017-May-17 18:59N 37°57' E 023°22'0 0.1
2017-May-17 18:29N 37°57' E 023°22'0 0.0
2017-May-17 17:59N 37°57' E 023°22'0 0.0
2017-May-17 17:29N 37°57' E 023°22'0 0.0
2017-May-17 16:59N 37°57' E 023°22'0 0.0
2017-May-17 16:29N 37°57' E 023°22'0 0.0
2017-May-17 15:59N 37°57' E 023°22'0 0.0
2017-May-17 15:29N 37°57' E 023°22'0 0.1
2017-May-17 14:59N 37°57' E 023°22'0 0.1
2017-May-17 14:29N 37°57' E 023°22'0 0.0
2017-May-17 13:29N 37°57' E 023°22'0 0.0
2017-May-17 12:59N 37°57' E 023°22'0 0.0
2017-May-17 12:29N 37°57' E 023°22'0 0.0
2017-May-17 11:59N 37°57' E 023°22'0 0.0
2017-May-17 11:29N 37°57' E 023°22'0 0.0
2017-May-17 10:59N 37°57' E 023°22'0 0.1
2017-May-17 10:29N 37°57' E 023°22'0 0.3
2017-May-17 09:59N 37°57' E 023°22'1 2.5
2017-May-17 09:30N 37°56' E 023°22'2 4.1
2017-May-17 09:00N 37°54' E 023°22'3 5.3
2017-May-17 08:31N 37°52' E 023°25'4 8.9
2017-May-17 08:00N 37°50' E 023°30'5 9.3
2017-May-17 07:30N 37°50' E 023°36'4 7.7
2017-May-17 07:00N 37°49' E 023°40'5 9.0
2017-May-17 06:30N 37°45' E 023°43'510.5
2017-May-17 06:00N 37°40' E 023°46'612.4
2017-May-17 05:30N 37°34' E 023°48'46511.7
2017-May-15 13:46N 31°22' E 029°26'712.3
2017-May-15 13:11N 31°16' E 029°30'211.5
2017-May-15 13:00N 31°14' E 029°31'10 4.2
2017-May-15 10:38N 31°05' E 029°36'  
Track history (hours):
 
Tides and Currents Weather Stations Pressure Air Temp Water Temp Dewpoint Dewpoint Depression Visibility Wind Speed Wind Dir Waves Ship Positions

Ce_breeze

Last reported at 2017-May-20 15:00 UTC. Time now 2017-May-23 06:52 UTC.
Position N 37°48' E 024°31'.

Length 240 m; draft 8 m.

Type: Tanker. MMSI: 636010400.

Date/timePositionNaut miles runAvg speedWind from/ knotsBaromVisibWave heightAir tempDewpointWater temp
2017-May-20 15:00N 37°48' E 024°31'612.2
2017-May-20 14:30N 37°45' E 024°24'1412.9
2017-May-20 13:26N 37°36' E 024°11'512.5
2017-May-20 13:00N 37°34' E 024°04'612.4
2017-May-20 12:30N 37°35' E 023°57'612.0
2017-May-20 12:00N 37°37' E 023°50'612.1
2017-May-20 11:30N 37°39' E 023°43'612.0
2017-May-20 11:00N 37°45' E 023°39'510.8
2017-May-20 10:30N 37°49' E 023°36'4 8.9
2017-May-20 10:00N 37°52' E 023°31'1 2.1
2017-May-20 09:28N 37°52' E 023°30'0 0.1
2017-May-20 08:58N 37°52' E 023°30'0 0.0
2017-May-20 08:28N 37°52' E 023°30'0 0.0
2017-May-20 07:58N 37°52' E 023°30'0 0.0
2017-May-20 07:28N 37°52' E 023°30'0 0.0
2017-May-20 06:55N 37°52' E 023°30'0 0.0
2017-May-20 06:28N 37°52' E 023°30'0 0.0
2017-May-20 05:58N 37°52' E 023°30'0 0.0
2017-May-20 05:28N 37°52' E 023°30'0 0.0
2017-May-20 04:58N 37°52' E 023°30'0 0.0
2017-May-20 04:28N 37°52' E 023°30'0 0.0
2017-May-20 03:58N 37°52' E 023°30'0 0.0
2017-May-20 03:28N 37°52' E 023°30'0 0.0
2017-May-20 02:58N 37°52' E 023°30'0 0.0
2017-May-20 02:28N 37°52' E 023°30'0 0.0
2017-May-20 01:58N 37°52' E 023°30'0 0.0
2017-May-20 01:28N 37°52' E 023°30'0 0.0
2017-May-20 00:58N 37°52' E 023°30'0 0.0
2017-May-20 00:28N 37°52' E 023°30'0 0.0
2017-May-19 23:58N 37°52' E 023°30'0 0.1
2017-May-19 23:28N 37°52' E 023°30'0 0.0
2017-May-19 22:58N 37°52' E 023°30'0 0.0
2017-May-19 22:28N 37°52' E 023°30'0 0.0
2017-May-19 21:58N 37°52' E 023°30'0 0.1
2017-May-19 21:28N 37°52' E 023°30'0 0.0
2017-May-19 20:58N 37°52' E 023°30'0 0.0
2017-May-19 20:28N 37°52' E 023°30'0 0.0
2017-May-19 19:58N 37°52' E 023°30'0 0.0
2017-May-19 19:28N 37°52' E 023°30'0 0.0
2017-May-19 18:58N 37°52' E 023°30'0 0.0
2017-May-19 18:28N 37°52' E 023°30'0 0.1
2017-May-19 17:58N 37°52' E 023°30'0 0.1
2017-May-19 17:28N 37°52' E 023°30'0 0.0
2017-May-19 16:58N 37°52' E 023°30'0 0.0
2017-May-19 16:28N 37°52' E 023°30'0 0.5
2017-May-19 16:00N 37°52' E 023°30'1 3.0
2017-May-19 15:30N 37°51' E 023°28'3 5.4
2017-May-19 15:00N 37°52' E 023°25'7 6.8
2017-May-19 14:00N 37°58' E 023°23'0 0.0
2017-May-19 13:30N 37°58' E 023°23'0 0.0
2017-May-19 13:00N 37°58' E 023°23'0 0.0
2017-May-19 12:30N 37°58' E 023°23'0 0.0
2017-May-19 11:59N 37°58' E 023°23'0 0.0
2017-May-19 11:29N 37°58' E 023°23'0 0.0
2017-May-19 10:59N 37°58' E 023°23'0 0.0
2017-May-19 10:29N 37°58' E 023°23'0 0.0
2017-May-19 09:59N 37°58' E 023°23'0 0.0
2017-May-19 09:29N 37°58' E 023°23'0 0.0
2017-May-19 08:59N 37°58' E 023°23'0 0.0
2017-May-19 08:29N 37°58' E 023°23'0 0.0
2017-May-19 07:59N 37°58' E 023°23'0 0.0
2017-May-19 07:29N 37°58' E 023°23'0 0.0
2017-May-19 06:59N 37°58' E 023°23'0 0.0
2017-May-19 06:26N 37°58' E 023°23'0 0.0
2017-May-19 05:59N 37°58' E 023°23'0 0.0
2017-May-19 05:29N 37°58' E 023°23'0 0.0
2017-May-19 04:59N 37°58' E 023°23'0 0.0
2017-May-19 04:29N 37°58' E 023°23'0 0.0
2017-May-19 03:59N 37°58' E 023°23'0 0.0
2017-May-19 03:29N 37°58' E 023°23'0 0.0
2017-May-19 02:59N 37°58' E 023°23'0 0.0
2017-May-19 02:29N 37°58' E 023°23'0 0.0
2017-May-19 01:59N 37°58' E 023°23'0 0.0
2017-May-19 01:29N 37°58' E 023°23'0 0.0
2017-May-19 00:59N 37°58' E 023°23'0 0.0
2017-May-19 00:26N 37°58' E 023°23'0 0.0
2017-May-18 23:59N 37°58' E 023°23'0 0.0
2017-May-18 23:29N 37°58' E 023°23'0 0.0
2017-May-18 22:59N 37°58' E 023°23'0 0.0
2017-May-18 22:26N 37°58' E 023°23'0 0.0
2017-May-18 21:59N 37°58' E 023°23'0 0.0
2017-May-18 21:29N 37°58' E 023°23'0 0.0
2017-May-18 20:59N 37°58' E 023°23'0 0.0
2017-May-18 20:29N 37°58' E 023°23'0 0.0
2017-May-18 19:59N 37°58' E 023°23'0 0.0
2017-May-18 19:29N 37°58' E 023°23'0 0.0
2017-May-18 18:59N 37°58' E 023°23'0 0.0
2017-May-18 18:29N 37°58' E 023°23'0 0.0
2017-May-18 17:59N 37°58' E 023°23'0 0.0
2017-May-18 17:29N 37°58' E 023°23'0 0.0
2017-May-18 16:53N 37°58' E 023°23'0 0.0
2017-May-18 16:29N 37°58' E 023°23'0 0.0
2017-May-18 15:59N 37°58' E 023°23'0 0.0
2017-May-18 15:29N 37°58' E 023°23'0 0.0
2017-May-18 14:59N 37°58' E 023°23'0 0.0
2017-May-18 14:29N 37°58' E 023°23'0 0.0
2017-May-18 13:29N 37°58' E 023°23'0 0.0
2017-May-18 12:59N 37°58' E 023°23'0 0.0
2017-May-18 12:29N 37°58' E 023°23'0 0.0
2017-May-18 11:59N 37°58' E 023°23'0 0.0
2017-May-18 11:29N 37°58' E 023°23'0 0.0
2017-May-18 10:59N 37°58' E 023°23'0 0.0
2017-May-18 10:29N 37°58' E 023°23'0 0.0
2017-May-18 10:00N 37°58' E 023°23'1 1.4
2017-May-18 09:30N 37°58' E 023°23'1 1.5
2017-May-18 08:59N 37°57' E 023°22'0 0.1
2017-May-18 08:29N 37°57' E 023°22'0 0.0
2017-May-18 07:59N 37°57' E 023°22'0 0.0
2017-May-18 07:29N 37°57' E 023°22'0 0.0
2017-May-18 06:59N 37°57' E 023°22'0 0.1
2017-May-18 06:29N 37°57' E 023°22'0 0.0
2017-May-18 05:59N 37°57' E 023°22'0 0.0
2017-May-18 05:29N 37°57' E 023°22'0 0.0
2017-May-18 04:59N 37°57' E 023°22'0 0.1
2017-May-18 04:29N 37°57' E 023°22'0 0.1
2017-May-18 03:59N 37°57' E 023°22'0 0.0
2017-May-18 03:29N 37°57' E 023°22'0 0.0
2017-May-18 02:59N 37°57' E 023°22'0 0.0
2017-May-18 02:29N 37°57' E 023°22'0 0.0
2017-May-18 01:59N 37°57' E 023°22'0 0.0
2017-May-18 01:29N 37°57' E 023°22'0 0.1
2017-May-18 00:59N 37°57' E 023°22'0 0.1
2017-May-18 00:29N 37°57' E 023°22'0 0.0
2017-May-17 23:59N 37°57' E 023°22'0 0.0
2017-May-17 23:29N 37°57' E 023°22'0 0.0
2017-May-17 22:59N 37°57' E 023°22'0 0.1
2017-May-17 22:29N 37°57' E 023°22'0 0.0
2017-May-17 21:59N 37°57' E 023°22'0 0.0
2017-May-17 21:29N 37°57' E 023°22'0 0.0
2017-May-17 20:59N 37°57' E 023°22'0 0.0
2017-May-17 20:29N 37°57' E 023°22'0 0.0
2017-May-17 19:59N 37°57' E 023°22'0 0.0
2017-May-17 19:29N 37°57' E 023°22'0 0.1
2017-May-17 18:59N 37°57' E 023°22'0 0.1
2017-May-17 18:29N 37°57' E 023°22'0 0.0
2017-May-17 17:59N 37°57' E 023°22'0 0.0
2017-May-17 17:29N 37°57' E 023°22'0 0.0
2017-May-17 16:59N 37°57' E 023°22'0 0.0
2017-May-17 16:29N 37°57' E 023°22'0 0.0
2017-May-17 15:59N 37°57' E 023°22'0 0.0
2017-May-17 15:29N 37°57' E 023°22'0 0.1
2017-May-17 14:59N 37°57' E 023°22'0 0.1
2017-May-17 14:29N 37°57' E 023°22'0 0.0
2017-May-17 13:29N 37°57' E 023°22'0 0.0
2017-May-17 12:59N 37°57' E 023°22'0 0.0
2017-May-17 12:29N 37°57' E 023°22'0 0.0
2017-May-17 11:59N 37°57' E 023°22'0 0.0
2017-May-17 11:29N 37°57' E 023°22'0 0.0
2017-May-17 10:59N 37°57' E 023°22'0 0.1
2017-May-17 10:29N 37°57' E 023°22'0 0.3
2017-May-17 09:59N 37°57' E 023°22'1 2.5
2017-May-17 09:30N 37°56' E 023°22'2 4.1
2017-May-17 09:00N 37°54' E 023°22'3 5.3
2017-May-17 08:31N 37°52' E 023°25'4 8.9
2017-May-17 08:00N 37°50' E 023°30'5 9.3
2017-May-17 07:30N 37°50' E 023°36'4 7.7
2017-May-17 07:00N 37°49' E 023°40'5 9.0
2017-May-17 06:30N 37°45' E 023°43'510.5
2017-May-17 06:00N 37°40' E 023°46'612.4
2017-May-17 05:30N 37°34' E 023°48'46511.7
2017-May-15 13:46N 31°22' E 029°26'712.3
2017-May-15 13:11N 31°16' E 029°30'211.5
2017-May-15 13:00N 31°14' E 029°31'10 4.2
2017-May-15 10:38N 31°05' E 029°36'  

Dump ship's entire track history